sensor_id;sensor_type;location;lat;lon;timestamp;temperature;humidity
69204;DHT22;56317;27.658;85.326;2023-07-13T00:01:55;22.30;99.90
69204;DHT22;56317;27.658;85.326;2023-07-13T00:04:23;22.30;99.90
69204;DHT22;56317;27.658;85.326;2023-07-13T00:06:52;22.40;99.90
69204;DHT22;56317;27.658;85.326;2023-07-13T00:09:19;22.40;99.90
69204;DHT22;56317;27.658;85.326;2023-07-13T00:11:52;22.40;99.90
69204;DHT22;56317;27.658;85.326;2023-07-13T00:14:20;22.40;99.90
69204;DHT22;56317;27.658;85.326;2023-07-13T00:16:47;22.40;99.90
69204;DHT22;56317;27.658;85.326;2023-07-13T00:19:15;22.50;99.90
69204;DHT22;56317;27.658;85.326;2023-07-13T00:21:42;22.50;99.90
69204;DHT22;56317;27.658;85.326;2023-07-13T00:24:12;22.60;99.90
69204;DHT22;56317;27.658;85.326;2023-07-13T00:26:41;22.70;99.90
69204;DHT22;56317;27.658;85.326;2023-07-13T00:29:11;22.70;99.90
69204;DHT22;56317;27.658;85.326;2023-07-13T00:31:39;22.80;99.90
69204;DHT22;56317;27.658;85.326;2023-07-13T00:34:06;22.90;99.90
69204;DHT22;56317;27.658;85.326;2023-07-13T00:36:33;23.00;99.90
69204;DHT22;56317;27.658;85.326;2023-07-13T00:39:00;23.10;99.90
69204;DHT22;56317;27.658;85.326;2023-07-13T00:41:27;23.20;99.90
69204;DHT22;56317;27.658;85.326;2023-07-13T00:43:55;23.30;99.90
69204;DHT22;56317;27.658;85.326;2023-07-13T00:46:32;23.40;99.90
69204;DHT22;56317;27.658;85.326;2023-07-13T00:49:03;23.50;99.90
69204;DHT22;56317;27.658;85.326;2023-07-13T00:51:44;23.60;99.90
69204;DHT22;56317;27.658;85.326;2023-07-13T00:54:18;23.80;99.90
69204;DHT22;56317;27.658;85.326;2023-07-13T00:56:47;23.90;99.90
69204;DHT22;56317;27.658;85.326;2023-07-13T00:59:16;24.00;99.90
69204;DHT22;56317;27.658;85.326;2023-07-13T01:01:45;24.10;99.90
69204;DHT22;56317;27.658;85.326;2023-07-13T01:04:12;24.20;99.90
69204;DHT22;56317;27.658;85.326;2023-07-13T01:06:41;24.40;99.90
69204;DHT22;56317;27.658;85.326;2023-07-13T01:09:10;24.60;99.90
69204;DHT22;56317;27.658;85.326;2023-07-13T01:11:38;24.90;99.90
69204;DHT22;56317;27.658;85.326;2023-07-13T01:14:06;25.00;99.90
69204;DHT22;56317;27.658;85.326;2023-07-13T01:16:37;25.10;99.90
69204;DHT22;56317;27.658;85.326;2023-07-13T01:21:56;25.30;99.90
69204;DHT22;56317;27.658;85.326;2023-07-13T01:24:23;25.40;99.90
69204;DHT22;56317;27.658;85.326;2023-07-13T01:26:50;25.50;99.90
69204;DHT22;56317;27.658;85.326;2023-07-13T01:29:17;25.60;99.90
69204;DHT22;56317;27.658;85.326;2023-07-13T01:31:44;25.60;99.90
69204;DHT22;56317;27.658;85.326;2023-07-13T01:34:13;25.70;99.90
69204;DHT22;56317;27.658;85.326;2023-07-13T01:36:40;25.90;99.90
69204;DHT22;56317;27.658;85.326;2023-07-13T01:39:09;26.00;99.90
69204;DHT22;56317;27.658;85.326;2023-07-13T01:41:36;26.20;99.90
69204;DHT22;56317;27.658;85.326;2023-07-13T01:44:03;26.40;99.90
69204;DHT22;56317;27.658;85.326;2023-07-13T01:46:30;26.60;99.90
69204;DHT22;56317;27.658;85.326;2023-07-13T01:48:58;26.70;99.90
69204;DHT22;56317;27.658;85.326;2023-07-13T01:51:25;26.70;99.90
69204;DHT22;56317;27.658;85.326;2023-07-13T01:53:52;26.70;99.90
69204;DHT22;56317;27.658;85.326;2023-07-13T01:56:19;26.80;99.90
69204;DHT22;56317;27.658;85.326;2023-07-13T01:58:47;26.90;99.90
69204;DHT22;56317;27.658;85.326;2023-07-13T02:01:15;27.10;99.90
69204;DHT22;56317;27.658;85.326;2023-07-13T02:03:43;27.10;99.90
69204;DHT22;56317;27.658;85.326;2023-07-13T02:06:10;27.20;99.90
69204;DHT22;56317;27.658;85.326;2023-07-13T02:08:38;27.20;99.90
69204;DHT22;56317;27.658;85.326;2023-07-13T02:11:05;27.40;99.90
69204;DHT22;56317;27.658;85.326;2023-07-13T02:13:32;27.60;99.90
69204;DHT22;56317;27.658;85.326;2023-07-13T02:16:00;27.60;99.90
69204;DHT22;56317;27.658;85.326;2023-07-13T02:18:28;27.80;99.90
69204;DHT22;56317;27.658;85.326;2023-07-13T02:20:55;27.90;99.90
69204;DHT22;56317;27.658;85.326;2023-07-13T02:23:22;28.10;99.90
69204;DHT22;56317;27.658;85.326;2023-07-13T02:25:49;28.20;99.90
69204;DHT22;56317;27.658;85.326;2023-07-13T02:28:20;28.50;99.90
69204;DHT22;56317;27.658;85.326;2023-07-13T02:30:47;28.90;99.90
69204;DHT22;56317;27.658;85.326;2023-07-13T02:33:15;29.20;99.90
69204;DHT22;56317;27.658;85.326;2023-07-13T02:35:42;29.60;99.90
69204;DHT22;56317;27.658;85.326;2023-07-13T02:38:11;29.90;99.90
69204;DHT22;56317;27.658;85.326;2023-07-13T02:40:38;30.20;99.90
69204;DHT22;56317;27.658;85.326;2023-07-13T02:43:05;30.30;99.90
69204;DHT22;56317;27.658;85.326;2023-07-13T02:45:32;30.30;99.90
69204;DHT22;56317;27.658;85.326;2023-07-13T02:47:59;30.30;99.90
69204;DHT22;56317;27.658;85.326;2023-07-13T02:50:26;30.50;99.90
69204;DHT22;56317;27.658;85.326;2023-07-13T02:52:54;30.40;99.90
69204;DHT22;56317;27.658;85.326;2023-07-13T02:55:22;30.40;99.90
69204;DHT22;56317;27.658;85.326;2023-07-13T02:57:49;30.50;99.90
69204;DHT22;56317;27.658;85.326;2023-07-13T03:00:17;30.60;99.90
69204;DHT22;56317;27.658;85.326;2023-07-13T03:02:44;30.60;99.90
69204;DHT22;56317;27.658;85.326;2023-07-13T03:05:12;30.50;99.90
69204;DHT22;56317;27.658;85.326;2023-07-13T03:07:42;30.50;99.90
69204;DHT22;56317;27.658;85.326;2023-07-13T03:10:10;30.40;99.90
69204;DHT22;56317;27.658;85.326;2023-07-13T03:12:37;30.20;99.90
69204;DHT22;56317;27.658;85.326;2023-07-13T03:15:05;29.90;99.90
69204;DHT22;56317;27.658;85.326;2023-07-13T03:17:32;29.90;99.90
69204;DHT22;56317;27.658;85.326;2023-07-13T03:20:02;30.00;99.90
69204;DHT22;56317;27.658;85.326;2023-07-13T03:22:30;30.30;99.90
69204;DHT22;56317;27.658;85.326;2023-07-13T03:24:58;30.70;99.90
69204;DHT22;56317;27.658;85.326;2023-07-13T03:27:25;31.00;99.90
69204;DHT22;56317;27.658;85.326;2023-07-13T03:29:53;31.30;99.90
69204;DHT22;56317;27.658;85.326;2023-07-13T03:32:21;31.50;99.90
69204;DHT22;56317;27.658;85.326;2023-07-13T03:34:48;31.70;99.90
69204;DHT22;56317;27.658;85.326;2023-07-13T03:37:16;31.90;99.90
69204;DHT22;56317;27.658;85.326;2023-07-13T03:39:43;32.30;99.90
69204;DHT22;56317;27.658;85.326;2023-07-13T03:42:10;32.40;99.90
69204;DHT22;56317;27.658;85.326;2023-07-13T03:44:38;32.50;99.90
69204;DHT22;56317;27.658;85.326;2023-07-13T03:47:06;32.30;99.90
69204;DHT22;56317;27.658;85.326;2023-07-13T03:49:35;32.30;99.90
69204;DHT22;56317;27.658;85.326;2023-07-13T03:52:03;32.10;99.90
69204;DHT22;56317;27.658;85.326;2023-07-13T03:54:30;31.90;99.90
69204;DHT22;56317;27.658;85.326;2023-07-13T03:56:59;31.60;99.90
69204;DHT22;56317;27.658;85.326;2023-07-13T03:59:26;31.60;99.90
69204;DHT22;56317;27.658;85.326;2023-07-13T04:01:54;31.50;99.90
69204;DHT22;56317;27.658;85.326;2023-07-13T04:04:21;31.50;99.90
69204;DHT22;56317;27.658;85.326;2023-07-13T04:06:48;31.60;99.90
69204;DHT22;56317;27.658;85.326;2023-07-13T04:09:16;31.70;99.90
69204;DHT22;56317;27.658;85.326;2023-07-13T04:11:43;31.50;99.90
69204;DHT22;56317;27.658;85.326;2023-07-13T04:14:10;31.30;99.90
69204;DHT22;56317;27.658;85.326;2023-07-13T04:16:38;31.10;99.90
69204;DHT22;56317;27.658;85.326;2023-07-13T04:19:05;31.00;99.90
69204;DHT22;56317;27.658;85.326;2023-07-13T04:21:32;31.10;99.90
69204;DHT22;56317;27.658;85.326;2023-07-13T04:24:04;30.90;99.90
69204;DHT22;56317;27.658;85.326;2023-07-13T04:26:32;30.90;99.90
69204;DHT22;56317;27.658;85.326;2023-07-13T04:29:02;30.70;99.90
69204;DHT22;56317;27.658;85.326;2023-07-13T04:31:31;30.10;99.90
69204;DHT22;56317;27.658;85.326;2023-07-13T04:33:58;29.70;99.90
69204;DHT22;56317;27.658;85.326;2023-07-13T04:36:26;29.50;99.90
69204;DHT22;56317;27.658;85.326;2023-07-13T04:38:56;29.30;99.90
69204;DHT22;56317;27.658;85.326;2023-07-13T04:41:24;28.90;99.90
69204;DHT22;56317;27.658;85.326;2023-07-13T04:43:52;28.70;99.90
69204;DHT22;56317;27.658;85.326;2023-07-13T04:46:21;28.50;99.90
69204;DHT22;56317;27.658;85.326;2023-07-13T04:48:50;28.40;99.90
69204;DHT22;56317;27.658;85.326;2023-07-13T04:51:19;28.40;99.90
69204;DHT22;56317;27.658;85.326;2023-07-13T04:53:47;28.60;99.90
69204;DHT22;56317;27.658;85.326;2023-07-13T04:56:15;28.60;99.90
69204;DHT22;56317;27.658;85.326;2023-07-13T04:58:42;28.50;99.90
69204;DHT22;56317;27.658;85.326;2023-07-13T05:01:12;28.50;99.90
69204;DHT22;56317;27.658;85.326;2023-07-13T05:03:40;28.70;99.90
69204;DHT22;56317;27.658;85.326;2023-07-13T05:06:08;28.90;99.90
69204;DHT22;56317;27.658;85.326;2023-07-13T05:08:40;29.20;99.90
69204;DHT22;56317;27.658;85.326;2023-07-13T05:11:07;29.50;99.90
69204;DHT22;56317;27.658;85.326;2023-07-13T05:13:35;29.80;99.90
69204;DHT22;56317;27.658;85.326;2023-07-13T05:16:04;29.80;99.90
69204;DHT22;56317;27.658;85.326;2023-07-13T05:18:35;29.70;99.90
69204;DHT22;56317;27.658;85.326;2023-07-13T05:21:07;29.70;99.90
69204;DHT22;56317;27.658;85.326;2023-07-13T05:23:35;29.90;99.90
69204;DHT22;56317;27.658;85.326;2023-07-13T05:26:04;29.70;99.90
69204;DHT22;56317;27.658;85.326;2023-07-13T05:28:31;29.90;99.90
69204;DHT22;56317;27.658;85.326;2023-07-13T05:30:59;30.10;99.90
69204;DHT22;56317;27.658;85.326;2023-07-13T05:33:30;30.10;99.90
69204;DHT22;56317;27.658;85.326;2023-07-13T05:36:01;29.80;99.90
69204;DHT22;56317;27.658;85.326;2023-07-13T05:38:29;29.80;99.90
69204;DHT22;56317;27.658;85.326;2023-07-13T05:40:56;29.80;99.90
69204;DHT22;56317;27.658;85.326;2023-07-13T05:43:24;29.70;99.90
69204;DHT22;56317;27.658;85.326;2023-07-13T05:45:55;29.80;99.90
69204;DHT22;56317;27.658;85.326;2023-07-13T05:48:23;30.00;99.90
69204;DHT22;56317;27.658;85.326;2023-07-13T05:50:51;30.10;99.90
69204;DHT22;56317;27.658;85.326;2023-07-13T05:53:19;30.20;99.90
69204;DHT22;56317;27.658;85.326;2023-07-13T05:55:48;29.90;99.90
69204;DHT22;56317;27.658;85.326;2023-07-13T05:58:20;29.90;99.90
69204;DHT22;56317;27.658;85.326;2023-07-13T06:00:48;30.10;99.90
69204;DHT22;56317;27.658;85.326;2023-07-13T06:03:17;30.30;99.90
69204;DHT22;56317;27.658;85.326;2023-07-13T06:05:45;30.60;99.90
69204;DHT22;56317;27.658;85.326;2023-07-13T06:08:12;30.60;99.90
69204;DHT22;56317;27.658;85.326;2023-07-13T06:10:40;30.90;99.90
69204;DHT22;56317;27.658;85.326;2023-07-13T06:13:08;31.10;99.90
69204;DHT22;56317;27.658;85.326;2023-07-13T06:15:35;31.40;99.90
69204;DHT22;56317;27.658;85.326;2023-07-13T06:18:02;31.40;99.90
69204;DHT22;56317;27.658;85.326;2023-07-13T06:20:33;31.50;99.90
69204;DHT22;56317;27.658;85.326;2023-07-13T06:23:01;31.40;99.90
69204;DHT22;56317;27.658;85.326;2023-07-13T06:25:31;31.80;99.90
69204;DHT22;56317;27.658;85.326;2023-07-13T06:27:58;32.30;99.90
69204;DHT22;56317;27.658;85.326;2023-07-13T06:30:25;32.60;99.90
69204;DHT22;56317;27.658;85.326;2023-07-13T06:32:53;33.00;99.90
69204;DHT22;56317;27.658;85.326;2023-07-13T06:35:21;33.20;99.90
69204;DHT22;56317;27.658;85.326;2023-07-13T06:37:48;33.50;99.90
69204;DHT22;56317;27.658;85.326;2023-07-13T06:40:15;33.60;99.90
69204;DHT22;56317;27.658;85.326;2023-07-13T06:42:50;33.50;99.90
69204;DHT22;56317;27.658;85.326;2023-07-13T06:45:17;33.70;99.90
69204;DHT22;56317;27.658;85.326;2023-07-13T06:47:45;34.10;99.90
69204;DHT22;56317;27.658;85.326;2023-07-13T06:50:13;34.40;99.90
69204;DHT22;56317;27.658;85.326;2023-07-13T06:52:40;34.60;99.90
69204;DHT22;56317;27.658;85.326;2023-07-13T06:55:08;34.70;99.90
69204;DHT22;56317;27.658;85.326;2023-07-13T06:57:35;34.60;99.90
69204;DHT22;56317;27.658;85.326;2023-07-13T07:00:03;34.70;99.90
69204;DHT22;56317;27.658;85.326;2023-07-13T07:02:33;34.90;99.90
69204;DHT22;56317;27.658;85.326;2023-07-13T07:05:00;35.20;99.90
69204;DHT22;56317;27.658;85.326;2023-07-13T07:07:27;35.40;99.90
69204;DHT22;56317;27.658;85.326;2023-07-13T07:09:55;35.70;99.90
69204;DHT22;56317;27.658;85.326;2023-07-13T07:12:22;35.80;99.10
69204;DHT22;56317;27.658;85.326;2023-07-13T07:14:49;35.40;99.00
69204;DHT22;56317;27.658;85.326;2023-07-13T07:17:16;35.00;98.70
69204;DHT22;56317;27.658;85.326;2023-07-13T07:19:44;34.90;97.70
69204;DHT22;56317;27.658;85.326;2023-07-13T07:22:14;34.80;99.10
69204;DHT22;56317;27.658;85.326;2023-07-13T07:24:41;34.90;97.90
69204;DHT22;56317;27.658;85.326;2023-07-13T07:27:08;35.10;97.00
69204;DHT22;56317;27.658;85.326;2023-07-13T07:29:37;35.10;97.20
69204;DHT22;56317;27.658;85.326;2023-07-13T07:32:04;34.80;97.40
69204;DHT22;56317;27.658;85.326;2023-07-13T07:34:32;34.40;98.40
69204;DHT22;56317;27.658;85.326;2023-07-13T07:37:02;34.40;98.40
69204;DHT22;56317;27.658;85.326;2023-07-13T07:39:30;34.40;98.10
69204;DHT22;56317;27.658;85.326;2023-07-13T07:41:57;33.70;97.90
69204;DHT22;56317;27.658;85.326;2023-07-13T07:44:25;32.80;98.00
69204;DHT22;56317;27.658;85.326;2023-07-13T07:46:54;32.40;99.00
69204;DHT22;56317;27.658;85.326;2023-07-13T07:49:22;32.10;99.30
69204;DHT22;56317;27.658;85.326;2023-07-13T07:51:49;31.70;99.10
69204;DHT22;56317;27.658;85.326;2023-07-13T07:54:17;31.30;99.60
69204;DHT22;56317;27.658;85.326;2023-07-13T07:56:47;31.80;99.60
69204;DHT22;56317;27.658;85.326;2023-07-13T07:59:14;34.00;98.20
69204;DHT22;56317;27.658;85.326;2023-07-13T08:01:41;33.50;96.40
69204;DHT22;56317;27.658;85.326;2023-07-13T08:04:10;33.00;97.50
69204;DHT22;56317;27.658;85.326;2023-07-13T08:06:37;32.40;97.50
69204;DHT22;56317;27.658;85.326;2023-07-13T08:09:04;32.50;98.10
69204;DHT22;56317;27.658;85.326;2023-07-13T08:11:32;32.70;97.50
69204;DHT22;56317;27.658;85.326;2023-07-13T08:13:59;32.80;97.50
69204;DHT22;56317;27.658;85.326;2023-07-13T08:16:27;32.90;97.50
69204;DHT22;56317;27.658;85.326;2023-07-13T08:18:54;32.50;97.90
69204;DHT22;56317;27.658;85.326;2023-07-13T08:21:22;32.10;98.30
69204;DHT22;56317;27.658;85.326;2023-07-13T08:23:49;31.60;98.90
69204;DHT22;56317;27.658;85.326;2023-07-13T08:26:16;31.30;99.30
69204;DHT22;56317;27.658;85.326;2023-07-13T08:28:43;31.90;99.50
69204;DHT22;56317;27.658;85.326;2023-07-13T08:31:11;31.70;98.40
69204;DHT22;56317;27.658;85.326;2023-07-13T08:33:38;31.10;99.50
69204;DHT22;56317;27.658;85.326;2023-07-13T08:36:07;30.50;99.70
69204;DHT22;56317;27.658;85.326;2023-07-13T08:38:35;29.80;99.90
69204;DHT22;56317;27.658;85.326;2023-07-13T08:41:13;29.50;99.90
69204;DHT22;56317;27.658;85.326;2023-07-13T08:43:42;29.50;99.90
69204;DHT22;56317;27.658;85.326;2023-07-13T08:46:26;28.90;99.90
69204;DHT22;56317;27.658;85.326;2023-07-13T08:49:03;28.40;99.90
69204;DHT22;56317;27.658;85.326;2023-07-13T08:51:36;27.90;99.90
69204;DHT22;56317;27.658;85.326;2023-07-13T08:57:15;27.10;99.90
69204;DHT22;56317;27.658;85.326;2023-07-13T08:59:44;26.70;99.90
69204;DHT22;56317;27.658;85.326;2023-07-13T09:05:08;26.40;99.90
69204;DHT22;56317;27.658;85.326;2023-07-13T09:08:43;26.60;99.90
69204;DHT22;56317;27.658;85.326;2023-07-13T09:10:52;26.80;99.90
69204;DHT22;56317;27.658;85.326;2023-07-13T09:13:50;26.80;99.90
69204;DHT22;56317;27.658;85.326;2023-07-13T09:16:20;26.70;99.90
69204;DHT22;56317;27.658;85.326;2023-07-13T09:18:51;26.60;99.90
69204;DHT22;56317;27.658;85.326;2023-07-13T09:21:36;26.50;99.90
69204;DHT22;56317;27.658;85.326;2023-07-13T09:24:39;26.50;99.90
69204;DHT22;56317;27.658;85.326;2023-07-13T09:27:23;26.50;99.90
69204;DHT22;56317;27.658;85.326;2023-07-13T09:30:11;26.70;99.90
69204;DHT22;56317;27.658;85.326;2023-07-13T09:32:47;26.90;99.90
69204;DHT22;56317;27.658;85.326;2023-07-13T09:35:29;27.10;99.90
69204;DHT22;56317;27.658;85.326;2023-07-13T09:38:18;27.30;99.90
69204;DHT22;56317;27.658;85.326;2023-07-13T09:41:11;27.50;99.90
69204;DHT22;56317;27.658;85.326;2023-07-13T09:44:07;27.60;99.90
69204;DHT22;56317;27.658;85.326;2023-07-13T09:46:47;27.60;99.90
69204;DHT22;56317;27.658;85.326;2023-07-13T09:49:22;27.60;99.90
69204;DHT22;56317;27.658;85.326;2023-07-13T09:51:59;27.70;99.90
69204;DHT22;56317;27.658;85.326;2023-07-13T09:54:27;27.80;99.90
69204;DHT22;56317;27.658;85.326;2023-07-13T09:56:56;27.80;99.90
69204;DHT22;56317;27.658;85.326;2023-07-13T09:59:37;27.80;99.90
69204;DHT22;56317;27.658;85.326;2023-07-13T10:02:26;27.80;99.90
69204;DHT22;56317;27.658;85.326;2023-07-13T10:05:26;27.80;99.90
69204;DHT22;56317;27.658;85.326;2023-07-13T10:07:56;27.80;99.90
69204;DHT22;56317;27.658;85.326;2023-07-13T10:10:23;27.70;99.90
69204;DHT22;56317;27.658;85.326;2023-07-13T10:12:51;27.70;99.90
69204;DHT22;56317;27.658;85.326;2023-07-13T10:15:23;27.70;99.90
69204;DHT22;56317;27.658;85.326;2023-07-13T10:17:56;27.50;99.90
69204;DHT22;56317;27.658;85.326;2023-07-13T10:20:25;27.40;99.90
69204;DHT22;56317;27.658;85.326;2023-07-13T10:25:27;27.40;99.90
69204;DHT22;56317;27.658;85.326;2023-07-13T10:28:29;27.30;99.90
69204;DHT22;56317;27.658;85.326;2023-07-13T10:30:54;27.20;99.90
69204;DHT22;56317;27.658;85.326;2023-07-13T10:33:23;27.10;99.90
69204;DHT22;56317;27.658;85.326;2023-07-13T10:35:58;27.00;99.90
69204;DHT22;56317;27.658;85.326;2023-07-13T10:38:28;26.80;99.90
69204;DHT22;56317;27.658;85.326;2023-07-13T10:41:17;26.70;99.90
69204;DHT22;56317;27.658;85.326;2023-07-13T10:43:50;26.80;99.90
69204;DHT22;56317;27.658;85.326;2023-07-13T10:46:21;26.80;99.90
69204;DHT22;56317;27.658;85.326;2023-07-13T10:48:52;26.80;99.90
69204;DHT22;56317;27.658;85.326;2023-07-13T10:51:20;26.80;99.90
69204;DHT22;56317;27.658;85.326;2023-07-13T10:56:46;26.50;99.90
69204;DHT22;56317;27.658;85.326;2023-07-13T10:59:25;26.40;99.90
69204;DHT22;56317;27.658;85.326;2023-07-13T11:02:12;26.30;99.90
69204;DHT22;56317;27.658;85.326;2023-07-13T11:04:46;26.10;99.90
69204;DHT22;56317;27.658;85.326;2023-07-13T11:07:32;26.00;99.90
69204;DHT22;56317;27.658;85.326;2023-07-13T11:10:56;25.90;99.90
69204;DHT22;56317;27.658;85.326;2023-07-13T11:21:31;25.70;99.90
69204;DHT22;56317;27.658;85.326;2023-07-13T11:24:17;25.80;99.90
69204;DHT22;56317;27.658;85.326;2023-07-13T11:29:36;25.90;99.90
69204;DHT22;56317;27.658;85.326;2023-07-13T11:32:30;25.90;99.90
69204;DHT22;56317;27.658;85.326;2023-07-13T11:34:58;25.90;99.90
69204;DHT22;56317;27.658;85.326;2023-07-13T11:37:26;26.00;99.90
69204;DHT22;56317;27.658;85.326;2023-07-13T11:39:56;26.00;99.90
69204;DHT22;56317;27.658;85.326;2023-07-13T11:42:24;26.20;99.90
69204;DHT22;56317;27.658;85.326;2023-07-13T11:44:52;26.30;99.90
69204;DHT22;56317;27.658;85.326;2023-07-13T11:47:23;26.40;99.90
69204;DHT22;56317;27.658;85.326;2023-07-13T11:49:55;26.40;99.90
69204;DHT22;56317;27.658;85.326;2023-07-13T11:52:32;26.30;99.90
69204;DHT22;56317;27.658;85.326;2023-07-13T11:55:03;26.30;99.90
69204;DHT22;56317;27.658;85.326;2023-07-13T11:57:53;26.20;99.90
69204;DHT22;56317;27.658;85.326;2023-07-13T12:00:29;26.10;99.90
69204;DHT22;56317;27.658;85.326;2023-07-13T12:03:00;26.00;99.90
69204;DHT22;56317;27.658;85.326;2023-07-13T12:05:28;25.90;99.90
69204;DHT22;56317;27.658;85.326;2023-07-13T12:07:57;25.70;99.90
69204;DHT22;56317;27.658;85.326;2023-07-13T12:10:28;25.50;99.90
69204;DHT22;56317;27.658;85.326;2023-07-13T12:13:05;25.40;99.90
69204;DHT22;56317;27.658;85.326;2023-07-13T12:15:45;25.20;99.90
69204;DHT22;56317;27.658;85.326;2023-07-13T12:18:23;25.10;99.90
69204;DHT22;56317;27.658;85.326;2023-07-13T12:20:57;25.00;99.90
69204;DHT22;56317;27.658;85.326;2023-07-13T12:23:28;24.80;99.90
69204;DHT22;56317;27.658;85.326;2023-07-13T12:25:57;24.70;99.90
69204;DHT22;56317;27.658;85.326;2023-07-13T12:28:34;24.60;99.90
69204;DHT22;56317;27.658;85.326;2023-07-13T12:31:06;24.50;99.90
69204;DHT22;56317;27.658;85.326;2023-07-13T12:33:34;24.40;99.90
69204;DHT22;56317;27.658;85.326;2023-07-13T12:36:05;24.40;99.90
69204;DHT22;56317;27.658;85.326;2023-07-13T12:38:33;24.30;99.90
69204;DHT22;56317;27.658;85.326;2023-07-13T12:41:02;24.30;99.90
69204;DHT22;56317;27.658;85.326;2023-07-13T12:43:34;24.20;99.90
69204;DHT22;56317;27.658;85.326;2023-07-13T12:48:43;24.10;99.90
69204;DHT22;56317;27.658;85.326;2023-07-13T12:51:14;24.10;99.90
69204;DHT22;56317;27.658;85.326;2023-07-13T12:56:32;23.70;99.90
69204;DHT22;56317;27.658;85.326;2023-07-13T12:59:03;23.50;99.90
69204;DHT22;56317;27.658;85.326;2023-07-13T13:01:34;23.50;99.90
69204;DHT22;56317;27.658;85.326;2023-07-13T13:04:04;23.40;99.90
69204;DHT22;56317;27.658;85.326;2023-07-13T13:06:35;23.40;99.90
69204;DHT22;56317;27.658;85.326;2023-07-13T13:09:13;23.30;99.90
69204;DHT22;56317;27.658;85.326;2023-07-13T13:11:41;23.30;99.90
69204;DHT22;56317;27.658;85.326;2023-07-13T13:14:10;23.20;99.90
69204;DHT22;56317;27.658;85.326;2023-07-13T13:16:48;23.20;99.90
69204;DHT22;56317;27.658;85.326;2023-07-13T13:19:18;23.20;99.90
69204;DHT22;56317;27.658;85.326;2023-07-13T13:21:48;23.10;99.90
69204;DHT22;56317;27.658;85.326;2023-07-13T13:24:24;23.10;99.90
69204;DHT22;56317;27.658;85.326;2023-07-13T13:26:53;23.10;99.90
69204;DHT22;56317;27.658;85.326;2023-07-13T13:29:24;23.10;99.90
69204;DHT22;56317;27.658;85.326;2023-07-13T13:31:52;23.10;99.90
69204;DHT22;56317;27.658;85.326;2023-07-13T13:34:21;23.10;99.90
69204;DHT22;56317;27.658;85.326;2023-07-13T13:36:52;23.10;99.90
69204;DHT22;56317;27.658;85.326;2023-07-13T13:39:33;23.10;99.90
69204;DHT22;56317;27.658;85.326;2023-07-13T13:42:00;23.10;99.90
69204;DHT22;56317;27.658;85.326;2023-07-13T13:44:28;23.10;99.90
69204;DHT22;56317;27.658;85.326;2023-07-13T13:46:55;23.00;99.90
69204;DHT22;56317;27.658;85.326;2023-07-13T13:49:26;22.90;99.90
69204;DHT22;56317;27.658;85.326;2023-07-13T13:51:54;22.80;99.90
69204;DHT22;56317;27.658;85.326;2023-07-13T13:54:23;22.80;99.90
69204;DHT22;56317;27.658;85.326;2023-07-13T13:56:55;22.70;99.90
69204;DHT22;56317;27.658;85.326;2023-07-13T13:59:25;22.60;99.90
69204;DHT22;56317;27.658;85.326;2023-07-13T14:01:52;22.50;99.90
69204;DHT22;56317;27.658;85.326;2023-07-13T14:04:21;22.40;99.90
69204;DHT22;56317;27.658;85.326;2023-07-13T14:06:49;22.30;99.90
69204;DHT22;56317;27.658;85.326;2023-07-13T14:09:18;22.20;99.90
69204;DHT22;56317;27.658;85.326;2023-07-13T14:11:47;22.10;99.90
69204;DHT22;56317;27.658;85.326;2023-07-13T14:14:22;22.10;99.90
69204;DHT22;56317;27.658;85.326;2023-07-13T14:16:51;22.00;99.90
69204;DHT22;56317;27.658;85.326;2023-07-13T14:19:21;22.00;99.90
69204;DHT22;56317;27.658;85.326;2023-07-13T14:21:48;21.90;99.90
69204;DHT22;56317;27.658;85.326;2023-07-13T14:24:16;21.90;99.90
69204;DHT22;56317;27.658;85.326;2023-07-13T14:26:43;21.90;99.90
69204;DHT22;56317;27.658;85.326;2023-07-13T14:29:16;21.90;99.90
69204;DHT22;56317;27.658;85.326;2023-07-13T14:31:44;21.90;99.90
69204;DHT22;56317;27.658;85.326;2023-07-13T14:34:13;21.90;99.90
69204;DHT22;56317;27.658;85.326;2023-07-13T14:36:45;21.90;99.90
69204;DHT22;56317;27.658;85.326;2023-07-13T14:39:17;21.80;99.90
69204;DHT22;56317;27.658;85.326;2023-07-13T14:41:45;21.80;99.90
69204;DHT22;56317;27.658;85.326;2023-07-13T14:44:14;21.80;99.90
69204;DHT22;56317;27.658;85.326;2023-07-13T14:46:42;21.80;99.90
69204;DHT22;56317;27.658;85.326;2023-07-13T14:49:15;21.80;99.90
69204;DHT22;56317;27.658;85.326;2023-07-13T14:51:43;21.70;99.90
69204;DHT22;56317;27.658;85.326;2023-07-13T14:54:10;21.70;99.90
69204;DHT22;56317;27.658;85.326;2023-07-13T14:56:38;21.70;99.90
69204;DHT22;56317;27.658;85.326;2023-07-13T14:59:05;21.70;99.90
69204;DHT22;56317;27.658;85.326;2023-07-13T15:01:37;21.70;99.90
69204;DHT22;56317;27.658;85.326;2023-07-13T15:04:05;21.70;99.90
69204;DHT22;56317;27.658;85.326;2023-07-13T15:09:21;21.80;99.90
69204;DHT22;56317;27.658;85.326;2023-07-13T15:11:50;21.80;99.90
69204;DHT22;56317;27.658;85.326;2023-07-13T15:14:17;21.80;99.90
69204;DHT22;56317;27.658;85.326;2023-07-13T15:16:46;21.80;99.90
69204;DHT22;56317;27.658;85.326;2023-07-13T15:19:13;21.80;99.90
69204;DHT22;56317;27.658;85.326;2023-07-13T15:21:41;21.80;99.90
69204;DHT22;56317;27.658;85.326;2023-07-13T15:24:10;21.80;99.90
69204;DHT22;56317;27.658;85.326;2023-07-13T15:26:38;21.80;99.90
69204;DHT22;56317;27.658;85.326;2023-07-13T15:29:05;21.80;99.90
69204;DHT22;56317;27.658;85.326;2023-07-13T15:31:33;21.70;99.90
69204;DHT22;56317;27.658;85.326;2023-07-13T15:34:09;21.80;99.90
69204;DHT22;56317;27.658;85.326;2023-07-13T15:36:37;21.70;99.90
69204;DHT22;56317;27.658;85.326;2023-07-13T15:39:05;21.70;99.90
69204;DHT22;56317;27.658;85.326;2023-07-13T15:41:33;21.70;99.90
69204;DHT22;56317;27.658;85.326;2023-07-13T15:44:04;21.70;99.90
69204;DHT22;56317;27.658;85.326;2023-07-13T15:46:32;21.70;99.90
69204;DHT22;56317;27.658;85.326;2023-07-13T15:48:59;21.70;99.90
69204;DHT22;56317;27.658;85.326;2023-07-13T15:51:29;21.80;99.90
69204;DHT22;56317;27.658;85.326;2023-07-13T15:54:02;21.80;99.90
69204;DHT22;56317;27.658;85.326;2023-07-13T15:56:36;21.70;99.90
69204;DHT22;56317;27.658;85.326;2023-07-13T15:59:08;21.70;99.90
69204;DHT22;56317;27.658;85.326;2023-07-13T16:01:35;21.70;99.90
69204;DHT22;56317;27.658;85.326;2023-07-13T16:04:03;21.70;99.90
69204;DHT22;56317;27.658;85.326;2023-07-13T16:06:34;21.70;99.90
69204;DHT22;56317;27.658;85.326;2023-07-13T16:09:03;21.70;99.90